createdAt,value
2023-02-08T00:00:23.907Z,38.80
2023-02-08T00:03:26.067Z,37.07
2023-02-08T00:06:19.554Z,41.57
2023-02-08T00:09:13.484Z,38.50
2023-02-08T00:11:53.840Z,38.33
2023-02-08T00:14:46.138Z,43.03
2023-02-08T00:17:33.940Z,46.20
2023-02-08T00:20:11.365Z,39.57
2023-02-08T00:22:52.653Z,48.57
2023-02-08T00:25:27.278Z,46.17
2023-02-08T00:28:04.019Z,45.87
2023-02-08T00:30:47.573Z,50.10
2023-02-08T00:33:25.475Z,45.87
2023-02-08T00:36:01.633Z,53.83
2023-02-08T00:38:36.413Z,49.80
2023-02-08T00:41:13.912Z,45.80
2023-02-08T00:43:49.280Z,42.70
2023-02-08T00:46:26.869Z,49.60
2023-02-08T00:49:00.250Z,49.90
2023-02-08T00:51:35.219Z,49.07
2023-02-08T00:54:30.640Z,54.10
2023-02-08T00:57:11.974Z,47.57
2023-02-08T01:00:04.444Z,50.13
2023-02-08T01:02:57.866Z,44.53
2023-02-08T01:05:39.991Z,51.07
2023-02-08T01:08:14.927Z,51.20
2023-02-08T01:10:56.853Z,51.03
2023-02-08T01:13:47.100Z,54.40
2023-02-08T01:16:50.710Z,52.50
2023-02-08T01:19:42.241Z,53.00
2023-02-08T01:22:25.624Z,52.10
2023-02-08T01:25:21.364Z,53.37
2023-02-08T01:28:02.471Z,54.53
2023-02-08T01:30:42.044Z,52.60
2023-02-08T01:33:18.803Z,51.07
2023-02-08T01:35:59.441Z,51.27
2023-02-08T01:38:37.011Z,58.70
2023-02-08T01:41:19.395Z,48.07
2023-02-08T01:44:04.822Z,53.90
2023-02-08T01:46:39.994Z,52.77
2023-02-08T01:49:19.081Z,46.83
2023-02-08T01:51:56.831Z,50.03
2023-02-08T01:54:34.724Z,48.07
2023-02-08T01:57:15.944Z,47.27
2023-02-08T01:59:54.026Z,49.80
2023-02-08T02:02:31.869Z,47.30
2023-02-08T02:05:05.335Z,48.40
2023-02-08T02:07:45.626Z,45.33
2023-02-08T02:10:24.960Z,48.97
2023-02-08T02:13:04.918Z,56.67
2023-02-08T02:15:39.377Z,46.40
2023-02-08T02:18:13.896Z,44.23
2023-02-08T02:20:56.092Z,52.97
2023-02-08T02:23:58.257Z,43.20
2023-02-08T02:26:51.841Z,42.70
2023-02-08T02:29:37.569Z,39.20
2023-02-08T02:32:21.617Z,36.20
2023-02-08T02:35:06.948Z,42.43
2023-02-08T02:37:44.316Z,48.67
2023-02-08T02:40:22.509Z,39.57
2023-02-08T02:43:17.984Z,38.10
2023-02-08T02:45:58.090Z,38.93
2023-02-08T02:48:41.728Z,36.73
2023-02-08T02:51:16.689Z,36.33
2023-02-08T02:53:57.262Z,35.80
2023-02-08T02:56:34.081Z,31.67
2023-02-08T02:59:11.777Z,37.67
2023-02-08T03:01:49.997Z,34.57
2023-02-08T03:04:39.286Z,33.93
2023-02-08T03:07:19.385Z,35.10
2023-02-08T03:10:04.722Z,37.27
2023-02-08T03:12:45.231Z,34.57
2023-02-08T03:15:33.321Z,32.43
2023-02-08T03:18:19.280Z,36.20
2023-02-08T03:20:57.962Z,30.53
2023-02-08T03:23:40.685Z,36.57
2023-02-08T03:26:18.585Z,34.33
2023-02-08T03:28:56.788Z,31.40
2023-02-08T03:31:35.467Z,29.17
2023-02-08T03:34:13.988Z,28.33
2023-02-08T03:36:51.256Z,31.30
2023-02-08T03:39:29.586Z,35.37
2023-02-08T03:42:11.075Z,28.97
2023-02-08T03:44:48.789Z,28.03
2023-02-08T03:47:26.315Z,35.00
2023-02-08T03:50:02.446Z,29.17
2023-02-08T03:52:37.334Z,32.43
2023-02-08T03:55:13.937Z,31.87
2023-02-08T03:57:50.784Z,28.73
2023-02-08T04:00:36.761Z,27.53
2023-02-08T04:03:15.937Z,29.30
2023-02-08T04:05:50.009Z,29.20
2023-02-08T04:08:23.612Z,33.03
2023-02-08T04:10:59.524Z,28.83
2023-02-08T04:13:34.604Z,26.13
2023-02-08T04:16:09.508Z,29.90
2023-02-08T04:18:45.651Z,27.30
2023-02-08T04:21:22.019Z,30.30
2023-02-08T04:23:55.266Z,30.03
2023-02-08T04:26:31.629Z,31.87
2023-02-08T04:29:05.960Z,29.30
2023-02-08T04:31:39.515Z,30.13
2023-02-08T04:34:13.423Z,30.17
2023-02-08T04:36:46.853Z,29.43
2023-02-08T04:39:20.669Z,34.00
2023-02-08T04:41:56.707Z,28.07
2023-02-08T04:44:33.058Z,26.63
2023-02-08T04:47:09.813Z,28.17
2023-02-08T04:49:44.645Z,26.40
2023-02-08T04:52:19.782Z,28.67
2023-02-08T04:54:54.297Z,32.47
2023-02-08T04:57:32.825Z,31.93
2023-02-08T05:00:06.918Z,28.07
2023-02-08T05:02:40.688Z,29.50
2023-02-08T05:05:14.041Z,26.57
2023-02-08T05:07:48.958Z,29.67
2023-02-08T05:10:22.745Z,26.57
2023-02-08T05:12:59.407Z,28.83
2023-02-08T05:15:34.459Z,31.93
2023-02-08T05:18:15.168Z,32.73
2023-02-08T05:20:57.114Z,27.97
2023-02-08T05:23:32.143Z,28.47
2023-02-08T05:26:07.177Z,29.77
2023-02-08T05:28:54.608Z,31.90
2023-02-08T05:31:48.496Z,30.00
2023-02-08T05:34:41.295Z,28.07
2023-02-08T05:37:20.896Z,27.53
2023-02-08T05:40:07.562Z,31.53
2023-02-08T05:42:53.126Z,35.20
2023-02-08T05:45:50.453Z,29.70
2023-02-08T05:48:37.628Z,27.70
2023-02-08T05:51:25.504Z,33.90
2023-02-08T05:54:10.028Z,30.10
2023-02-08T05:56:52.362Z,32.07
2023-02-08T05:59:28.289Z,34.03
2023-02-08T06:02:06.375Z,30.27
2023-02-08T06:04:41.454Z,29.27
2023-02-08T06:07:15.098Z,26.53
2023-02-08T06:09:51.916Z,29.23
2023-02-08T06:12:26.246Z,31.33
2023-02-08T06:15:00.530Z,32.63
2023-02-08T06:17:36.923Z,33.77
2023-02-08T06:20:11.155Z,31.43
2023-02-08T06:22:45.961Z,31.53
2023-02-08T06:25:22.100Z,30.20
2023-02-08T06:27:58.406Z,40.40
2023-02-08T06:30:32.199Z,31.17
2023-02-08T06:33:15.186Z,37.03
2023-02-08T06:35:52.472Z,33.10
2023-02-08T06:38:27.128Z,30.93
2023-02-08T06:41:01.313Z,30.37
2023-02-08T06:43:35.370Z,30.27
2023-02-08T06:46:10.072Z,36.20
2023-02-08T06:48:48.211Z,33.93
2023-02-08T06:51:22.316Z,35.80
2023-02-08T06:54:10.546Z,35.23
2023-02-08T06:57:01.214Z,33.93
2023-02-08T07:00:04.984Z,33.90
2023-02-08T07:03:05.554Z,33.30
2023-02-08T07:05:58.702Z,30.43
2023-02-08T07:08:42.192Z,35.40
2023-02-08T07:11:17.416Z,32.50
2023-02-08T07:14:01.747Z,34.60
2023-02-08T07:16:39.127Z,35.50
2023-02-08T07:19:12.824Z,32.20
2023-02-08T07:21:49.922Z,31.63
2023-02-08T07:24:29.065Z,35.50
2023-02-08T07:27:25.973Z,32.27
2023-02-08T07:30:09.052Z,35.17
2023-02-08T07:33:20.812Z,29.40
2023-02-08T07:36:24.214Z,31.23
2023-02-08T07:39:05.455Z,35.97
2023-02-08T07:41:56.750Z,38.53
2023-02-08T07:45:05.221Z,30.03
2023-02-08T07:47:39.553Z,31.27
2023-02-08T07:50:18.852Z,35.27
2023-02-08T07:53:00.761Z,30.23
2023-02-08T07:55:35.841Z,33.27
2023-02-08T07:58:19.230Z,36.17
2023-02-08T08:00:57.361Z,33.50
2023-02-08T08:04:02.321Z,31.30
2023-02-08T08:06:46.680Z,30.07
2023-02-08T08:09:26.472Z,26.33
2023-02-08T08:12:14.634Z,25.70
2023-02-08T08:15:20.149Z,31.37
2023-02-08T08:18:07.260Z,30.83
2023-02-08T08:20:52.933Z,33.13
2023-02-08T08:23:38.568Z,28.37
2023-02-08T08:26:18.592Z,29.27
2023-02-08T08:29:05.237Z,29.83
2023-02-08T08:31:55.230Z,32.70
2023-02-08T08:34:40.237Z,33.50
2023-02-08T08:37:16.583Z,35.07
2023-02-08T08:40:30.627Z,34.17
2023-02-08T08:43:20.023Z,33.10
2023-02-08T08:45:55.691Z,33.03
2023-02-08T08:48:37.433Z,33.07
2023-02-08T08:51:13.970Z,40.80
2023-02-08T08:53:48.945Z,33.60
2023-02-08T08:56:22.530Z,33.50
2023-02-08T08:58:57.159Z,34.47
2023-02-08T09:01:34.595Z,38.47
2023-02-08T09:04:08.869Z,34.63
2023-02-08T09:06:42.561Z,37.63
2023-02-08T09:09:16.595Z,37.70
2023-02-08T09:11:50.474Z,38.37
2023-02-08T09:15:02.145Z,34.47
2023-02-08T09:17:41.149Z,34.77
2023-02-08T09:20:52.339Z,36.13
2023-02-08T09:23:33.126Z,36.63
2023-02-08T09:26:16.913Z,34.50
2023-02-08T09:28:55.517Z,34.03
2023-02-08T09:31:39.909Z,34.70
2023-02-08T09:34:23.375Z,36.63
2023-02-08T09:37:34.024Z,36.50
2023-02-08T09:40:17.750Z,40.90
2023-02-08T09:43:02.233Z,43.60
2023-02-08T09:45:51.074Z,39.70
2023-02-08T09:48:39.600Z,36.80
2023-02-08T09:51:24.354Z,33.20
2023-02-08T09:54:00.977Z,32.27
2023-02-08T09:56:37.054Z,39.53
2023-02-08T09:59:20.034Z,38.40
2023-02-08T10:02:01.165Z,37.67
2023-02-08T10:04:41.922Z,37.27
2023-02-08T10:10:35.972Z,39.73
2023-02-08T10:13:41.366Z,37.03
2023-02-08T10:16:29.350Z,35.77
2023-02-08T10:19:07.561Z,38.83
2023-02-08T10:21:49.566Z,39.00
2023-02-08T10:24:55.484Z,35.90
2023-02-08T10:27:53.242Z,43.97
2023-02-08T10:30:42.060Z,38.97
2023-02-08T10:33:24.612Z,37.93
2023-02-08T10:36:23.715Z,32.33
2023-02-08T10:39:13.519Z,41.73
2023-02-08T10:41:54.649Z,38.67
2023-02-08T10:44:50.332Z,38.83
2023-02-08T10:47:33.254Z,36.87
2023-02-08T10:50:09.438Z,38.47
2023-02-08T10:52:49.461Z,41.73
2023-02-08T10:55:40.573Z,40.27
2023-02-08T10:58:18.228Z,39.47
2023-02-08T11:00:53.604Z,39.63
2023-02-08T11:03:35.458Z,38.00
2023-02-08T11:06:31.073Z,36.97
2023-02-08T11:09:09.120Z,38.33
2023-02-08T11:11:43.565Z,37.03
2023-02-08T11:14:20.152Z,34.17
2023-02-08T11:16:57.128Z,33.83
2023-02-08T11:19:43.908Z,35.97
2023-02-08T11:25:53.409Z,36.50
2023-02-08T11:28:42.695Z,35.97
2023-02-08T11:31:20.961Z,41.80
2023-02-08T11:34:04.123Z,37.93
2023-02-08T11:36:37.980Z,34.30
2023-02-08T11:39:17.483Z,37.37
2023-02-08T11:41:52.515Z,41.07
2023-02-08T11:44:30.207Z,38.17
2023-02-08T11:47:10.715Z,37.23
2023-02-08T11:49:44.797Z,54.13
2023-02-08T11:52:25.514Z,36.03
2023-02-08T11:55:24.348Z,34.77
2023-02-08T11:57:59.869Z,37.37
2023-02-08T12:00:34.301Z,36.67
2023-02-08T12:03:22.837Z,34.23
2023-02-08T12:06:10.979Z,37.57
2023-02-08T12:08:55.752Z,30.53
2023-02-08T12:11:33.133Z,42.53
2023-02-08T12:14:18.829Z,46.33
2023-02-08T12:17:03.585Z,37.90
2023-02-08T12:20:06.700Z,36.70
2023-02-08T12:22:44.491Z,35.37
2023-02-08T12:25:26.539Z,39.07
2023-02-08T12:28:16.596Z,34.57
2023-02-08T12:31:04.524Z,37.93
2023-02-08T12:33:45.225Z,34.93
2023-02-08T12:36:46.864Z,33.47
2023-02-08T12:39:58.220Z,38.37
2023-02-08T12:42:48.922Z,37.53
2023-02-08T12:45:43.478Z,43.60
2023-02-08T12:48:54.305Z,31.00
2023-02-08T12:51:31.090Z,34.53
2023-02-08T12:57:02.381Z,35.77
2023-02-08T12:59:39.402Z,36.13
2023-02-08T13:02:14.992Z,35.77
2023-02-08T13:04:50.220Z,39.50
2023-02-08T13:07:25.379Z,35.27
2023-02-08T13:10:02.557Z,34.77
2023-02-08T13:12:39.656Z,35.50
2023-02-08T13:15:30.261Z,36.90
2023-02-08T13:18:08.282Z,39.77
2023-02-08T13:20:42.617Z,33.00
2023-02-08T13:23:20.071Z,36.27
2023-02-08T13:25:54.417Z,34.63
2023-02-08T13:28:29.567Z,40.93
2023-02-08T13:31:05.585Z,38.37
2023-02-08T13:33:55.577Z,35.20
2023-02-08T13:36:35.015Z,37.37
2023-02-08T13:39:28.259Z,39.23
2023-02-08T13:42:04.320Z,39.33
2023-02-08T13:44:39.643Z,33.17
2023-02-08T13:47:26.520Z,38.07
2023-02-08T13:50:01.468Z,32.60
2023-02-08T13:52:52.316Z,36.37
2023-02-08T13:55:46.125Z,38.57
2023-02-08T13:58:43.110Z,37.10
2023-02-08T14:01:19.961Z,33.97
2023-02-08T14:04:13.100Z,36.67
2023-02-08T14:06:49.751Z,34.57
2023-02-08T14:09:25.136Z,33.80
2023-02-08T14:12:01.706Z,38.30
2023-02-08T14:14:41.534Z,46.17
2023-02-08T14:17:25.448Z,42.70
2023-02-08T14:20:03.830Z,44.07
2023-02-08T14:22:40.082Z,35.23
2023-02-08T14:25:18.808Z,34.60
2023-02-08T14:27:57.413Z,39.03
2023-02-08T14:30:33.325Z,37.40
2023-02-08T14:33:16.476Z,33.77
2023-02-08T14:35:55.933Z,37.27
2023-02-08T14:38:33.218Z,40.00
2023-02-08T14:41:08.980Z,37.20
2023-02-08T14:43:42.947Z,33.90
2023-02-08T14:46:48.995Z,31.27
2023-02-08T14:49:25.839Z,34.33
2023-02-08T14:52:01.060Z,33.50
2023-02-08T14:54:36.952Z,33.60
2023-02-08T14:57:31.471Z,32.20
2023-02-08T15:00:06.437Z,34.73
2023-02-08T15:02:43.030Z,34.90
2023-02-08T15:05:26.865Z,35.87
2023-02-08T15:08:00.753Z,33.07
2023-02-08T15:10:35.169Z,36.97
2023-02-08T15:13:18.048Z,31.47
2023-02-08T15:15:53.530Z,33.17
2023-02-08T15:18:29.373Z,34.27
2023-02-08T15:21:09.429Z,33.60
2023-02-08T15:23:42.460Z,34.87
2023-02-08T15:26:21.628Z,32.33
2023-02-08T15:28:54.638Z,35.53
2023-02-08T15:31:33.170Z,33.60
2023-02-08T15:34:06.450Z,36.97
2023-02-08T15:36:41.275Z,30.40
2023-02-08T15:39:21.170Z,33.27
2023-02-08T15:42:00.593Z,32.50
2023-02-08T15:44:40.006Z,33.33
2023-02-08T15:47:17.617Z,32.00
2023-02-08T15:49:53.568Z,31.70
2023-02-08T15:52:34.356Z,35.73
2023-02-08T15:55:08.195Z,34.30
2023-02-08T15:57:44.111Z,32.93
2023-02-08T16:00:24.454Z,30.90
2023-02-08T16:02:59.298Z,33.43
2023-02-08T16:05:33.455Z,37.63
2023-02-08T16:08:21.271Z,38.13
2023-02-08T16:10:56.069Z,36.77
2023-02-08T16:13:31.493Z,32.43
2023-02-08T16:16:19.674Z,34.50
2023-02-08T16:19:01.343Z,29.93
2023-02-08T16:21:41.427Z,29.33
2023-02-08T16:24:25.820Z,30.17
2023-02-08T16:27:04.683Z,30.67
2023-02-08T16:29:41.669Z,31.37
2023-02-08T16:32:21.607Z,32.13
2023-02-08T16:35:02.492Z,28.50
2023-02-08T16:37:40.475Z,28.27
2023-02-08T16:40:44.003Z,30.70
2023-02-08T16:43:23.905Z,28.93
2023-02-08T16:46:14.410Z,29.77
2023-02-08T16:48:53.962Z,35.33
2023-02-08T16:51:28.658Z,30.80
2023-02-08T16:54:05.156Z,31.20
2023-02-08T16:57:03.731Z,29.40
2023-02-08T16:59:44.063Z,28.83
2023-02-08T17:02:38.782Z,30.73
2023-02-08T17:05:13.287Z,31.47
2023-02-08T17:08:12.445Z,30.23
2023-02-08T17:10:52.047Z,33.90
2023-02-08T17:13:28.159Z,32.07
2023-02-08T17:16:01.598Z,31.60
2023-02-08T17:18:35.183Z,32.43
2023-02-08T17:21:12.059Z,34.90
2023-02-08T17:23:51.243Z,36.20
2023-02-08T17:26:30.878Z,32.17
2023-02-08T17:29:12.213Z,32.20
2023-02-08T17:31:50.470Z,30.53
2023-02-08T17:34:33.906Z,35.10
2023-02-08T17:37:10.269Z,38.47
2023-02-08T17:39:46.074Z,32.23
2023-02-08T17:42:21.933Z,32.50
2023-02-08T17:44:56.466Z,33.20
2023-02-08T17:47:30.744Z,34.80
2023-02-08T17:50:06.142Z,32.90
2023-02-08T17:52:39.554Z,31.23
2023-02-08T17:55:14.168Z,29.83
2023-02-08T17:57:47.616Z,30.03
2023-02-08T18:00:23.854Z,30.20
2023-02-08T18:03:01.198Z,32.03
2023-02-08T18:05:34.713Z,30.60
2023-02-08T18:08:07.714Z,31.70
2023-02-08T18:10:41.009Z,32.63
2023-02-08T18:13:14.218Z,32.80
2023-02-08T18:15:49.643Z,31.37
2023-02-08T18:18:22.957Z,34.47
2023-02-08T18:20:56.014Z,35.30
2023-02-08T18:23:31.185Z,31.57
2023-02-08T18:26:05.128Z,30.83
2023-02-08T18:28:38.004Z,32.80
2023-02-08T18:31:14.560Z,29.67
2023-02-08T18:33:54.474Z,31.90
2023-02-08T18:36:28.537Z,37.00
2023-02-08T18:39:01.964Z,32.43
2023-02-08T18:41:35.080Z,32.57
2023-02-08T18:44:11.468Z,30.90
2023-02-08T18:46:47.753Z,28.37
2023-02-08T18:49:23.093Z,29.43
2023-02-08T18:51:56.258Z,29.70
2023-02-08T18:54:32.358Z,27.70
2023-02-08T18:57:15.914Z,32.73
2023-02-08T18:59:54.080Z,28.50
2023-02-08T19:02:31.850Z,31.50
2023-02-08T19:05:07.246Z,30.23
2023-02-08T19:07:40.436Z,28.67
2023-02-08T19:10:13.399Z,26.57
2023-02-08T19:12:46.513Z,31.80
2023-02-08T19:15:20.944Z,30.27
2023-02-08T19:17:56.022Z,28.47
2023-02-08T19:20:37.738Z,29.17
2023-02-08T19:23:15.402Z,27.87
2023-02-08T19:25:51.489Z,31.00
2023-02-08T19:28:24.997Z,26.73
2023-02-08T19:31:09.797Z,25.70
2023-02-08T19:33:49.271Z,28.07
2023-02-08T19:36:24.007Z,27.47
2023-02-08T19:39:02.440Z,29.80
2023-02-08T19:41:36.408Z,30.03
2023-02-08T19:44:19.437Z,27.80
2023-02-08T19:46:55.481Z,30.70
2023-02-08T19:49:42.529Z,31.07
2023-02-08T19:52:23.081Z,31.73
2023-02-08T19:54:57.456Z,28.77
2023-02-08T19:57:41.055Z,29.63
2023-02-08T20:00:23.388Z,32.53
2023-02-08T20:02:57.244Z,26.67
2023-02-08T20:05:31.547Z,31.47
2023-02-08T20:08:04.783Z,30.63
2023-02-08T20:10:39.415Z,30.43
2023-02-08T20:13:13.109Z,31.27
2023-02-08T20:15:47.265Z,32.57
2023-02-08T20:18:22.075Z,32.30
2023-02-08T20:21:03.875Z,28.13
2023-02-08T20:23:44.667Z,32.57
2023-02-08T20:26:19.048Z,26.10
2023-02-08T20:28:55.029Z,25.83
2023-02-08T20:31:32.406Z,29.57
2023-02-08T20:34:09.005Z,33.10
2023-02-08T20:37:07.722Z,30.10
2023-02-08T20:39:41.852Z,29.57
2023-02-08T20:42:15.442Z,28.83
2023-02-08T20:44:48.971Z,28.23
2023-02-08T20:47:22.235Z,27.07
2023-02-08T20:50:01.224Z,27.97
2023-02-08T20:52:43.409Z,29.43
2023-02-08T20:55:16.421Z,27.33
2023-02-08T20:57:49.602Z,27.13
2023-02-08T21:00:40.174Z,29.17
2023-02-08T21:03:14.707Z,26.17
2023-02-08T21:05:47.968Z,24.27
2023-02-08T21:08:22.265Z,25.80
2023-02-08T21:10:58.271Z,23.90
2023-02-08T21:13:39.345Z,27.77
2023-02-08T21:16:12.731Z,28.37
2023-02-08T21:18:46.961Z,22.50
2023-02-08T21:21:25.127Z,25.63
2023-02-08T21:24:00.428Z,24.57
2023-02-08T21:26:36.446Z,26.40
2023-02-08T21:29:13.994Z,26.43
2023-02-08T21:31:53.976Z,25.47
2023-02-08T21:34:28.727Z,27.70
2023-02-08T21:37:04.783Z,27.27
2023-02-08T21:39:40.053Z,23.47
2023-02-08T21:42:15.406Z,24.47
2023-02-08T21:44:48.431Z,24.90
2023-02-08T21:47:22.355Z,26.10
2023-02-08T21:50:12.851Z,24.83
2023-02-08T21:53:05.853Z,25.13
2023-02-08T21:55:46.926Z,28.20
2023-02-08T21:58:20.320Z,24.30
2023-02-08T22:00:54.905Z,29.97
2023-02-08T22:03:28.052Z,25.53
2023-02-08T22:06:01.138Z,22.00
2023-02-08T22:08:36.799Z,25.30
2023-02-08T22:11:11.816Z,27.83
2023-02-08T22:13:44.821Z,22.13
2023-02-08T22:16:18.400Z,22.67
2023-02-08T22:18:51.400Z,25.27
2023-02-08T22:21:27.045Z,24.67
2023-02-08T22:24:00.430Z,24.37
2023-02-08T22:26:34.769Z,21.93
2023-02-08T22:29:11.078Z,24.33
2023-02-08T22:31:44.510Z,23.60
2023-02-08T22:34:17.576Z,24.30
2023-02-08T22:36:50.739Z,21.80
2023-02-08T22:39:25.495Z,23.13
2023-02-08T22:42:03.605Z,23.90
2023-02-08T22:44:37.000Z,23.63
2023-02-08T22:47:11.053Z,23.03
2023-02-08T22:49:46.989Z,24.07
2023-02-08T22:52:21.716Z,21.70
2023-02-08T22:54:56.122Z,23.33
2023-02-08T22:57:30.397Z,22.23
2023-02-08T23:00:03.797Z,23.97
2023-02-08T23:02:36.900Z,25.77
2023-02-08T23:05:11.276Z,23.97
2023-02-08T23:07:47.333Z,24.73
2023-02-08T23:13:12.108Z,21.93
2023-02-08T23:15:46.004Z,23.20
2023-02-08T23:18:19.133Z,20.83
2023-02-08T23:20:53.316Z,23.43
2023-02-08T23:23:29.405Z,23.07
2023-02-08T23:26:05.343Z,22.00
2023-02-08T23:28:39.622Z,24.33
2023-02-08T23:31:14.175Z,23.50
2023-02-08T23:33:47.296Z,26.33
2023-02-08T23:36:21.128Z,21.17
2023-02-08T23:38:56.260Z,22.77
2023-02-08T23:41:29.493Z,24.40
2023-02-08T23:44:07.054Z,21.07
2023-02-08T23:46:40.039Z,20.53
2023-02-08T23:49:15.419Z,21.73
2023-02-08T23:51:49.947Z,22.70
2023-02-08T23:54:22.923Z,22.57
2023-02-08T23:56:59.160Z,23.33
2023-02-08T23:59:33.917Z,27.10
